Time;durP1;ratioP1;P1;durP2;ratioP2;P2;SDS_P1;SDS_P2;PMS_P1;PMS_P2;Temp;Humidity;BMP_temperature;BMP_pressure;BME280_temperature;BME280_humidity;BME280_pressure;Samples;Min_cycle;Max_cycle;Signal;HPM_P1;HPM_P2
2022/05/17 00:00:48;;;;;;;15.48;9.10;;;;;;;;;;5092404;28;20023;-82
2022/05/17 00:03:15;;;;;;;12.27;9.05;;;;;;;;;;5111224;28;20028;-82
2022/05/17 00:05:45;;;;;;;12.85;9.63;;;;;;;;;;5112715;28;20355;-82
2022/05/17 00:08:11;;;;;;;14.65;10.35;;;;;;;;;;5109064;28;20491;-81
2022/05/17 00:10:38;;;;;;;13.63;10.38;;;;;;;;;;5087953;28;20016;-83
2022/05/17 00:13:05;;;;;;;14.80;9.70;;;;;;;;;;5091617;28;20478;-81
2022/05/17 00:15:32;;;;;;;13.52;8.65;;;;;;;;;;5091422;28;20044;-81
2022/05/17 00:17:59;;;;;;;12.65;7.63;;;;;;;;;;5094000;28;20486;-82
2022/05/17 00:20:26;;;;;;;9.63;6.20;;;;;;;;;;5113342;28;20039;-80
2022/05/17 00:22:53;;;;;;;10.13;6.80;;;;;;;;;;5116531;28;20027;-80
2022/05/17 00:25:21;;;;;;;14.07;6.00;;;;;;;;;;5116715;28;20421;-81
2022/05/17 00:27:47;;;;;;;13.40;5.93;;;;;;;;;;5116138;28;20042;-81
2022/05/17 00:30:14;;;;;;;9.20;5.68;;;;;;;;;;5097769;28;20379;-82
2022/05/17 00:32:41;;;;;;;8.23;5.40;;;;;;;;;;5091358;28;20115;-83
2022/05/17 00:35:09;;;;;;;7.20;5.50;;;;;;;;;;5090848;28;20443;-83
2022/05/17 00:37:36;;;;;;;9.33;5.37;;;;;;;;;;5091159;28;20487;-83
2022/05/17 00:40:03;;;;;;;10.83;5.30;;;;;;;;;;5106324;28;20035;-80
2022/05/17 00:42:30;;;;;;;9.40;4.90;;;;;;;;;;5116437;28;20032;-80
2022/05/17 00:44:56;;;;;;;12.13;4.63;;;;;;;;;;5115812;28;20420;-80
2022/05/17 00:47:35;;;;;;;9.87;5.90;;;;;;;;;;5116399;28;20031;-79
2022/05/17 00:50:11;;;;;;;11.30;5.53;;;;;;;;;;5102726;28;20031;-80
2022/05/17 00:52:41;;;;;;;12.97;5.63;;;;;;;;;;5092874;28;20028;-80
2022/05/17 00:55:12;;;;;;;15.27;8.47;;;;;;;;;;5093589;28;20040;-81
2022/05/17 00:57:44;;;;;;;13.50;9.60;;;;;;;;;;5105805;28;20031;-80
2022/05/17 01:00:13;;;;;;;15.43;9.13;;;;;;;;;;5105795;28;20502;-80
2022/05/17 01:02:46;;;;;;;13.20;8.73;;;;;;;;;;5113595;28;20169;-80
2022/05/17 01:05:14;;;;;;;13.10;9.03;;;;;;;;;;5116016;28;20520;-79
2022/05/17 01:07:42;;;;;;;18.33;10.17;;;;;;;;;;5115826;28;20047;-80
2022/05/17 01:10:09;;;;;;;15.40;10.67;;;;;;;;;;5114215;28;20406;-80
2022/05/17 01:12:37;;;;;;;14.63;10.20;;;;;;;;;;5112410;28;20337;-80
2022/05/17 01:15:06;;;;;;;17.17;11.30;;;;;;;;;;5092013;28;20324;-79
2022/05/17 01:17:34;;;;;;;14.70;10.43;;;;;;;;;;5090094;28;20078;-81
2022/05/17 01:20:02;;;;;;;13.10;9.53;;;;;;;;;;5093292;28;20402;-77
2022/05/17 01:22:28;;;;;;;14.23;9.53;;;;;;;;;;5099888;28;20023;-75
2022/05/17 01:25:15;;;;;;;16.30;9.23;;;;;;;;;;5111071;28;20393;-76
2022/05/17 01:28:04;;;;;;;14.67;9.70;;;;;;;;;;5094954;28;20024;-70
2022/05/17 01:30:32;;;;;;;14.37;10.27;;;;;;;;;;5094788;28;20027;-70
2022/05/17 01:32:58;;;;;;;14.17;10.37;;;;;;;;;;5094873;28;20115;-72
2022/05/17 01:35:25;;;;;;;14.53;11.00;;;;;;;;;;5094485;28;20032;-72
2022/05/17 01:37:55;;;;;;;15.63;10.40;;;;;;;;;;5090748;28;20032;-72
2022/05/17 01:40:22;;;;;;;17.17;10.40;;;;;;;;;;5089885;28;20413;-71
2022/05/17 01:42:48;;;;;;;19.43;11.17;;;;;;;;;;5096715;28;20496;-71
2022/05/17 01:45:25;;;;;;;15.67;10.13;;;;;;;;;;5098951;28;20374;-72
2022/05/17 01:47:52;;;;;;;18.20;10.63;;;;;;;;;;5092897;28;20023;-72
2022/05/17 01:50:19;;;;;;;14.33;11.00;;;;;;;;;;5094746;28;20489;-71
2022/05/17 01:52:45;;;;;;;13.60;10.37;;;;;;;;;;5076389;28;20375;-72
2022/05/17 01:55:12;;;;;;;13.87;10.87;;;;;;;;;;5105518;28;20031;-72
2022/05/17 01:57:39;;;;;;;16.87;10.80;;;;;;;;;;5115041;28;20020;-71
2022/05/17 02:00:07;;;;;;;13.47;9.97;;;;;;;;;;5111319;28;20027;-71
2022/05/17 02:02:34;;;;;;;18.03;12.00;;;;;;;;;;5109785;28;20058;-70
2022/05/17 02:05:01;;;;;;;14.00;10.93;;;;;;;;;;5109414;28;20074;-72
2022/05/17 02:07:27;;;;;;;18.10;10.63;;;;;;;;;;5103019;28;20033;-70
2022/05/17 02:09:54;;;;;;;18.80;11.07;;;;;;;;;;5111477;28;20024;-71
2022/05/17 02:12:21;;;;;;;13.17;10.57;;;;;;;;;;5114097;28;20032;-71
2022/05/17 02:14:47;;;;;;;14.33;10.93;;;;;;;;;;5114356;28;20413;-71
2022/05/17 02:17:14;;;;;;;16.17;11.60;;;;;;;;;;5114286;28;20015;-72
2022/05/17 02:19:41;;;;;;;16.97;10.77;;;;;;;;;;5100329;28;20506;-72
2022/05/17 02:22:08;;;;;;;13.10;9.33;;;;;;;;;;5091266;28;20424;-74
2022/05/17 02:24:34;;;;;;;17.37;9.50;;;;;;;;;;5100503;28;20019;-70
2022/05/17 02:27:01;;;;;;;14.33;10.20;;;;;;;;;;5109085;28;20163;-71
2022/05/17 02:29:29;;;;;;;12.63;9.67;;;;;;;;;;5108772;28;20028;-71
2022/05/17 02:31:56;;;;;;;16.10;11.33;;;;;;;;;;5109384;28;20024;-71
2022/05/17 02:34:23;;;;;;;16.67;10.23;;;;;;;;;;5113328;28;20145;-72
2022/05/17 02:36:49;;;;;;;19.77;12.33;;;;;;;;;;5113755;28;20035;-70
2022/05/17 02:39:16;;;;;;;14.73;11.07;;;;;;;;;;5113839;28;20536;-70
2022/05/17 02:41:43;;;;;;;13.30;9.57;;;;;;;;;;5101363;28;20074;-72
2022/05/17 02:44:10;;;;;;;19.77;10.60;;;;;;;;;;5091643;28;20020;-72
2022/05/17 02:46:36;;;;;;;15.93;10.27;;;;;;;;;;5088321;28;20028;-72
2022/05/17 02:49:07;;;;;;;17.30;9.87;;;;;;;;;;5088168;28;20024;-72
2022/05/17 02:51:34;;;;;;;15.37;11.27;;;;;;;;;;5100118;28;20491;-71
2022/05/17 02:54:01;;;;;;;17.90;9.87;;;;;;;;;;5109113;28;20030;-72
2022/05/17 02:56:31;;;;;;;16.70;9.90;;;;;;;;;;5111361;28;20031;-72
2022/05/17 02:58:58;;;;;;;22.73;10.87;;;;;;;;;;5113348;28;20027;-72
2022/05/17 03:01:24;;;;;;;19.00;10.13;;;;;;;;;;5103477;28;20488;-72
2022/05/17 03:03:51;;;;;;;18.23;9.87;;;;;;;;;;5110746;28;20049;-73
2022/05/17 03:06:18;;;;;;;16.50;9.53;;;;;;;;;;5091852;28;20412;-71
2022/05/17 03:08:44;;;;;;;16.17;10.40;;;;;;;;;;5101045;28;20093;-72
2022/05/17 03:11:11;;;;;;;15.03;10.27;;;;;;;;;;5103980;28;20051;-72
2022/05/17 03:13:38;;;;;;;23.57;10.10;;;;;;;;;;5094676;28;20084;-72
2022/05/17 03:16:05;;;;;;;17.23;9.30;;;;;;;;;;5093660;28;20078;-72
2022/05/17 03:18:32;;;;;;;18.90;10.20;;;;;;;;;;5074240;28;20028;-72
2022/05/17 03:20:58;;;;;;;18.90;10.90;;;;;;;;;;5092629;28;20111;-72
2022/05/17 03:23:25;;;;;;;15.80;9.80;;;;;;;;;;5095481;28;20444;-73
2022/05/17 03:25:52;;;;;;;23.17;10.20;;;;;;;;;;5113114;28;20028;-72
2022/05/17 03:28:18;;;;;;;17.03;9.83;;;;;;;;;;5112973;28;20091;-72
2022/05/17 03:30:45;;;;;;;21.57;9.73;;;;;;;;;;5083747;28;20028;-72
2022/05/17 03:33:12;;;;;;;13.20;8.60;;;;;;;;;;5087373;28;20147;-72
2022/05/17 03:35:39;;;;;;;17.13;8.20;;;;;;;;;;5087394;28;20043;-72
2022/05/17 03:38:07;;;;;;;15.57;8.13;;;;;;;;;;5087378;28;20106;-72
2022/05/17 03:40:34;;;;;;;14.73;9.70;;;;;;;;;;5092806;28;20351;-72
2022/05/17 03:43:00;;;;;;;17.53;8.70;;;;;;;;;;5112467;28;20149;-72
2022/05/17 03:45:27;;;;;;;14.80;9.97;;;;;;;;;;5102041;28;20508;-72
2022/05/17 03:47:54;;;;;;;14.00;9.03;;;;;;;;;;5092254;28;20391;-72
2022/05/17 03:50:20;;;;;;;12.60;8.30;;;;;;;;;;5092383;28;20032;-74
2022/05/17 03:52:47;;;;;;;15.83;9.43;;;;;;;;;;5088216;28;20020;-72
2022/05/17 03:55:14;;;;;;;17.30;9.27;;;;;;;;;;5099099;28;20039;-71
2022/05/17 03:57:40;;;;;;;17.53;10.43;;;;;;;;;;5107723;28;20039;-71
2022/05/17 04:00:08;;;;;;;15.73;9.73;;;;;;;;;;5101823;28;20123;-72
2022/05/17 04:02:37;;;;;;;18.43;10.40;;;;;;;;;;5110547;28;20034;-72
2022/05/17 04:05:04;;;;;;;14.00;9.17;;;;;;;;;;5094131;28;20035;-72
2022/05/17 04:07:31;;;;;;;19.07;10.53;;;;;;;;;;5112569;28;20069;-71
2022/05/17 04:09:57;;;;;;;21.07;9.37;;;;;;;;;;5101091;28;20440;-71
2022/05/17 04:12:24;;;;;;;14.67;9.90;;;;;;;;;;5104046;28;20031;-72
2022/05/17 04:14:51;;;;;;;14.67;9.13;;;;;;;;;;5097208;28;20081;-72
2022/05/17 04:17:17;;;;;;;12.93;8.83;;;;;;;;;;5105506;28;20479;-71
2022/05/17 04:19:44;;;;;;;17.33;8.00;;;;;;;;;;5107019;28;20038;-72
2022/05/17 04:22:11;;;;;;;10.77;7.87;;;;;;;;;;5107204;28;20085;-72
2022/05/17 04:24:41;;;;;;;12.70;8.93;;;;;;;;;;5109720;28;20114;-71
2022/05/17 04:27:09;;;;;;;14.73;9.70;;;;;;;;;;5077165;28;20114;-71
2022/05/17 04:29:37;;;;;;;22.17;9.17;;;;;;;;;;5111211;28;20024;-71
2022/05/17 04:32:05;;;;;;;17.87;10.20;;;;;;;;;;5112071;28;20040;-72
2022/05/17 04:34:31;;;;;;;16.30;9.80;;;;;;;;;;5112147;28;20122;-72
2022/05/17 04:36:58;;;;;;;15.93;9.17;;;;;;;;;;5109219;28;20039;-71
2022/05/17 04:39:25;;;;;;;21.87;10.37;;;;;;;;;;5106318;28;20027;-71
2022/05/17 04:41:52;;;;;;;15.17;9.27;;;;;;;;;;5107393;28;20027;-72
2022/05/17 04:44:19;;;;;;;17.47;9.80;;;;;;;;;;5106877;28;20031;-72
2022/05/17 04:46:45;;;;;;;15.93;9.90;;;;;;;;;;5108703;28;20374;-71
2022/05/17 04:49:12;;;;;;;18.53;8.90;;;;;;;;;;5112042;28;20027;-72
2022/05/17 04:51:39;;;;;;;13.37;8.83;;;;;;;;;;5112115;28;20046;-73
2022/05/17 04:54:05;;;;;;;15.40;9.27;;;;;;;;;;5111852;28;20034;-75
2022/05/17 04:56:34;;;;;;;15.07;8.30;;;;;;;;;;5104360;28;20466;-72
2022/05/17 04:59:01;;;;;;;17.13;9.00;;;;;;;;;;5113779;28;20039;-73
2022/05/17 05:01:28;;;;;;;13.03;9.67;;;;;;;;;;5110579;28;20770;-73
2022/05/17 05:03:55;;;;;;;14.93;8.70;;;;;;;;;;5108284;28;20028;-69
2022/05/17 05:06:22;;;;;;;15.87;8.20;;;;;;;;;;5101856;28;20031;-65
2022/05/17 05:08:49;;;;;;;17.77;8.87;;;;;;;;;;5092558;28;20035;-68
2022/05/17 05:11:15;;;;;;;13.67;8.73;;;;;;;;;;5106019;28;20094;-69
2022/05/17 05:13:42;;;;;;;12.07;7.90;;;;;;;;;;5094464;28;20042;-69
2022/05/17 05:16:10;;;;;;;19.17;11.33;;;;;;;;;;5095167;28;20035;-68
2022/05/17 05:18:37;;;;;;;17.00;10.97;;;;;;;;;;5094216;28;20085;-69
2022/05/17 05:21:12;;;;;;;21.40;9.77;;;;;;;;;;5093719;28;20054;-69
2022/05/17 05:23:40;;;;;;;12.48;9.73;;;;;;;;;;5089489;28;20111;-68
2022/05/17 05:26:08;;;;;;;14.47;10.13;;;;;;;;;;5089601;28;20035;-69
2022/05/17 05:28:35;;;;;;;13.33;9.50;;;;;;;;;;5088637;28;20040;-68
2022/05/17 05:31:03;;;;;;;17.93;10.70;;;;;;;;;;5089945;28;20032;-69
2022/05/17 05:33:31;;;;;;;18.60;10.03;;;;;;;;;;5107038;28;20390;-68
2022/05/17 05:35:58;;;;;;;16.60;11.23;;;;;;;;;;5092762;28;20446;-67
2022/05/17 05:38:25;;;;;;;16.07;9.70;;;;;;;;;;5094408;28;20044;-67
2022/05/17 05:40:52;;;;;;;14.60;9.50;;;;;;;;;;5098562;28;20026;-68
2022/05/17 05:43:18;;;;;;;15.33;9.17;;;;;;;;;;5095057;28;20705;-68
2022/05/17 05:45:45;;;;;;;16.33;9.27;;;;;;;;;;5108794;28;20035;-67
2022/05/17 05:48:12;;;;;;;13.87;9.77;;;;;;;;;;5090977;28;20478;-68
2022/05/17 05:50:39;;;;;;;16.60;11.20;;;;;;;;;;5093262;28;20027;-67
2022/05/17 05:53:07;;;;;;;17.83;10.03;;;;;;;;;;5109090;28;20020;-67
2022/05/17 05:55:34;;;;;;;15.73;10.40;;;;;;;;;;5107890;28;20122;-68
2022/05/17 05:58:02;;;;;;;12.83;8.53;;;;;;;;;;5094103;28;20463;-67
2022/05/17 06:00:29;;;;;;;17.03;9.70;;;;;;;;;;5093828;28;20379;-68
2022/05/17 06:02:56;;;;;;;16.27;10.30;;;;;;;;;;5101323;28;20059;-67
2022/05/17 06:05:24;;;;;;;16.37;9.50;;;;;;;;;;5100437;28;20039;-67
2022/05/17 06:07:50;;;;;;;16.87;9.23;;;;;;;;;;5107535;28;20012;-67
2022/05/17 06:10:18;;;;;;;15.90;9.90;;;;;;;;;;5107868;28;20031;-67
2022/05/17 06:12:44;;;;;;;17.30;10.30;;;;;;;;;;5099635;28;20035;-67
2022/05/17 06:15:11;;;;;;;14.63;10.93;;;;;;;;;;5088691;28;20035;-67
2022/05/17 06:17:38;;;;;;;17.47;10.37;;;;;;;;;;5102869;28;20092;-67
2022/05/17 06:20:06;;;;;;;15.03;10.03;;;;;;;;;;5113612;28;20110;-68
2022/05/17 06:22:34;;;;;;;14.80;10.20;;;;;;;;;;5096172;28;20542;-67
2022/05/17 06:25:01;;;;;;;15.70;9.97;;;;;;;;;;5093642;28;20017;-67
2022/05/17 06:27:27;;;;;;;14.70;10.07;;;;;;;;;;5098745;28;20027;-67
2022/05/17 06:29:54;;;;;;;13.90;10.97;;;;;;;;;;5090814;28;20024;-68
2022/05/17 06:32:21;;;;;;;18.57;10.13;;;;;;;;;;5108150;28;20102;-67
2022/05/17 06:34:47;;;;;;;17.53;10.77;;;;;;;;;;5108117;28;20418;-67
2022/05/17 06:37:15;;;;;;;17.90;10.27;;;;;;;;;;5108010;28;20049;-67
2022/05/17 06:39:42;;;;;;;18.80;11.57;;;;;;;;;;5101426;28;20543;-67
2022/05/17 06:42:09;;;;;;;15.20;10.13;;;;;;;;;;5093431;28;20031;-67
2022/05/17 06:44:37;;;;;;;18.77;11.07;;;;;;;;;;5104326;28;20028;-67
2022/05/17 06:47:04;;;;;;;17.33;10.43;;;;;;;;;;5093004;28;20482;-67
2022/05/17 06:49:32;;;;;;;17.67;11.07;;;;;;;;;;5093139;28;20016;-67
2022/05/17 06:52:02;;;;;;;18.87;11.57;;;;;;;;;;5092564;28;20451;-67
2022/05/17 06:54:29;;;;;;;13.67;9.67;;;;;;;;;;5108262;28;20424;-67
2022/05/17 06:56:55;;;;;;;14.43;10.03;;;;;;;;;;5091335;28;20165;-67
2022/05/17 06:59:22;;;;;;;17.60;11.43;;;;;;;;;;5087682;28;20058;-68
2022/05/17 07:01:49;;;;;;;15.20;10.23;;;;;;;;;;5092310;28;20055;-67
2022/05/17 07:04:16;;;;;;;16.80;10.43;;;;;;;;;;5110467;28;20026;-67
2022/05/17 07:06:43;;;;;;;15.63;10.63;;;;;;;;;;5112842;28;20031;-67
2022/05/17 07:09:12;;;;;;;17.60;11.83;;;;;;;;;;5107608;28;20028;-67
2022/05/17 07:14:23;;;;;;;;;;;;;;;;;;5103745;28;20101;-67
2022/05/17 07:16:50;;;;;;;16.60;10.67;;;;;;;;;;5088426;28;19916;-67
2022/05/17 07:19:17;;;;;;;20.93;10.97;;;;;;;;;;5101166;28;20059;-67
2022/05/17 07:21:44;;;;;;;21.23;10.97;;;;;;;;;;5099278;28;20043;-67
2022/05/17 07:24:10;;;;;;;20.23;11.90;;;;;;;;;;5091245;28;20024;-67
2022/05/17 07:26:37;;;;;;;19.60;10.00;;;;;;;;;;5105513;28;20027;-67
2022/05/17 07:29:03;;;;;;;17.17;11.70;;;;;;;;;;5112622;28;20063;-67
2022/05/17 07:31:30;;;;;;;18.30;11.27;;;;;;;;;;5112716;28;20034;-67
2022/05/17 07:33:58;;;;;;;19.70;12.87;;;;;;;;;;5113001;28;20100;-67
2022/05/17 07:36:25;;;;;;;20.47;11.60;;;;;;;;;;5108168;28;20105;-66
2022/05/17 07:38:52;;;;;;;21.27;11.53;;;;;;;;;;5106938;28;20034;-67
2022/05/17 07:41:19;;;;;;;20.67;11.87;;;;;;;;;;5107280;28;20022;-66
2022/05/17 07:43:46;;;;;;;17.43;10.87;;;;;;;;;;5096558;28;20032;-67
2022/05/17 07:46:12;;;;;;;17.57;12.10;;;;;;;;;;5106350;28;20023;-66
2022/05/17 07:48:39;;;;;;;19.33;12.67;;;;;;;;;;5112600;28;20490;-67
2022/05/17 07:51:06;;;;;;;18.57;11.83;;;;;;;;;;5112424;28;20028;-66
2022/05/17 07:53:33;;;;;;;16.23;10.13;;;;;;;;;;5112523;28;20031;-67
2022/05/17 07:56:00;;;;;;;16.43;10.77;;;;;;;;;;5098923;28;20540;-67
2022/05/17 07:58:27;;;;;;;16.60;10.80;;;;;;;;;;5088940;28;20471;-66
2022/05/17 08:00:53;;;;;;;14.73;9.37;;;;;;;;;;5086851;28;20413;-66
2022/05/17 08:03:21;;;;;;;18.90;10.30;;;;;;;;;;5086917;28;20030;-66
2022/05/17 08:05:48;;;;;;;17.97;11.50;;;;;;;;;;5087011;28;20486;-67
2022/05/17 08:08:15;;;;;;;17.60;10.87;;;;;;;;;;5089993;28;20031;-66
2022/05/17 08:10:41;;;;;;;13.43;9.47;;;;;;;;;;5093868;28;20532;-66
2022/05/17 08:13:08;;;;;;;14.23;9.90;;;;;;;;;;5111977;28;20053;-67
2022/05/17 08:15:35;;;;;;;19.43;11.70;;;;;;;;;;5102078;28;20036;-67
2022/05/17 08:18:02;;;;;;;15.20;10.90;;;;;;;;;;5096828;28;20072;-67
2022/05/17 08:20:30;;;;;;;15.37;9.93;;;;;;;;;;5109609;28;20471;-67
2022/05/17 08:22:57;;;;;;;14.53;10.03;;;;;;;;;;5106854;28;20030;-66
2022/05/17 08:28:09;;;;;;;15.60;11.20;;;;;;;;;;5086333;28;20181;-67
2022/05/17 08:30:37;;;;;;;19.37;12.07;;;;;;;;;;5089539;28;20035;-67
2022/05/17 08:33:17;;;;;;;18.80;12.07;;;;;;;;;;5108060;28;20108;-67
2022/05/17 08:35:52;;;;;;;19.43;11.80;;;;;;;;;;5116284;28;20028;-67
2022/05/17 08:38:21;;;;;;;17.88;11.70;;;;;;;;;;5097986;28;20487;-67
2022/05/17 08:40:51;;;;;;;17.33;10.33;;;;;;;;;;5095937;28;20024;-66
2022/05/17 08:43:26;;;;;;;17.30;11.27;;;;;;;;;;5091625;28;20094;-66
2022/05/17 08:46:06;;;;;;;15.53;9.90;;;;;;;;;;5100344;28;20036;-67
2022/05/17 08:48:36;;;;;;;14.13;9.90;;;;;;;;;;5090445;28;20430;-67
2022/05/17 08:51:04;;;;;;;13.67;10.07;;;;;;;;;;5090255;28;20032;-68
2022/05/17 08:53:30;;;;;;;16.77;11.30;;;;;;;;;;5095709;28;20031;-68
2022/05/17 08:55:58;;;;;;;16.20;10.53;;;;;;;;;;5111680;28;20031;-68
2022/05/17 08:58:32;;;;;;;17.10;11.13;;;;;;;;;;5095630;28;20107;-66
2022/05/17 09:01:06;;;;;;;13.95;9.80;;;;;;;;;;5094869;28;20046;-67
2022/05/17 09:03:35;;;;;;;15.93;10.67;;;;;;;;;;5095430;28;20024;-67
2022/05/17 09:06:14;;;;;;;15.90;10.97;;;;;;;;;;5090372;28;20490;-67
2022/05/17 09:08:50;;;;;;;15.30;10.53;;;;;;;;;;5092514;28;20271;-67
2022/05/17 09:11:33;;;;;;;16.90;10.23;;;;;;;;;;5109776;28;20260;-67
2022/05/17 09:14:08;;;;;;;17.20;10.77;;;;;;;;;;5110091;28;20027;-67
2022/05/17 09:16:37;;;;;;;13.87;10.20;;;;;;;;;;5112554;28;20032;-67
2022/05/17 09:19:04;;;;;;;16.33;10.80;;;;;;;;;;5095001;28;20032;-66
2022/05/17 09:21:32;;;;;;;16.77;11.30;;;;;;;;;;5094538;28;20035;-66
2022/05/17 09:24:00;;;;;;;21.13;10.77;;;;;;;;;;5115396;28;20027;-67
2022/05/17 09:26:28;;;;;;;15.47;9.97;;;;;;;;;;5114138;28;20027;-67
2022/05/17 09:29:12;;;;;;;16.93;11.10;;;;;;;;;;5089891;28;20358;-67
2022/05/17 09:31:38;;;;;;;19.63;10.43;;;;;;;;;;5098066;28;20761;-67
2022/05/17 09:34:08;;;;;;;15.73;9.90;;;;;;;;;;5108856;28;20297;-66
2022/05/17 09:36:49;;;;;;;15.93;10.60;;;;;;;;;;5098070;28;20298;-67
2022/05/17 09:39:20;;;;;;;17.63;11.27;;;;;;;;;;5115190;28;20030;-66
2022/05/17 09:41:47;;;;;;;16.50;10.97;;;;;;;;;;5109944;28;20806;-66
2022/05/17 09:44:15;;;;;;;17.53;10.23;;;;;;;;;;5094596;28;20735;-66
2022/05/17 09:46:44;;;;;;;17.63;10.10;;;;;;;;;;5094466;28;20608;-67
2022/05/17 09:52:34;;;;;;;19.03;9.57;;;;;;;;;;5109495;28;20294;-66
2022/05/17 09:55:13;;;;;;;17.70;12.67;;;;;;;;;;5109451;28;20267;-66
2022/05/17 09:57:55;;;;;;;19.33;11.47;;;;;;;;;;5100583;28;20826;-66
2022/05/17 10:00:28;;;;;;;17.50;10.60;;;;;;;;;;5093090;28;20257;-66
2022/05/17 10:02:54;;;;;;;20.10;11.53;;;;;;;;;;5104425;28;20278;-66
2022/05/17 10:05:26;;;;;;;19.93;11.03;;;;;;;;;;5114723;28;20730;-66
2022/05/17 10:08:04;;;;;;;15.93;10.47;;;;;;;;;;5100460;28;20406;-66
2022/05/17 10:10:35;;;;;;;18.03;11.10;;;;;;;;;;5093690;28;20273;-66
2022/05/17 10:13:08;;;;;;;22.33;10.43;;;;;;;;;;5088652;28;20268;-66
2022/05/17 10:15:37;;;;;;;15.43;10.27;;;;;;;;;;5088806;28;20778;-66
2022/05/17 10:18:09;;;;;;;17.47;11.03;;;;;;;;;;5102342;28;20275;-66
2022/05/17 10:20:40;;;;;;;17.30;10.93;;;;;;;;;;5106135;28;20320;-66
2022/05/17 10:23:09;;;;;;;17.70;11.47;;;;;;;;;;5093225;28;20272;-66
2022/05/17 10:25:52;;;;;;;21.40;10.90;;;;;;;;;;5093851;28;20264;-66
2022/05/17 10:28:31;;;;;;;18.17;12.63;;;;;;;;;;5093646;28;20260;-66
2022/05/17 10:31:02;;;;;;;17.80;11.93;;;;;;;;;;5093439;28;20298;-67
2022/05/17 10:33:35;;;;;;;20.80;13.37;;;;;;;;;;5093381;28;20364;-66
2022/05/17 10:36:09;;;;;;;21.47;12.70;;;;;;;;;;5088151;28;20300;-66
2022/05/17 10:38:40;;;;;;;24.60;13.93;;;;;;;;;;5088225;28;20659;-66
2022/05/17 10:41:09;;;;;;;20.23;13.17;;;;;;;;;;5088314;28;20253;-66
2022/05/17 10:43:41;;;;;;;23.77;13.77;;;;;;;;;;5089016;28;20279;-66
2022/05/17 10:46:19;;;;;;;29.63;13.80;;;;;;;;;;5093466;28;20295;-66
2022/05/17 10:48:54;;;;;;;17.37;11.77;;;;;;;;;;5093494;28;20623;-66
2022/05/17 10:51:32;;;;;;;24.42;13.57;;;;;;;;;;5095395;28;20739;-66
2022/05/17 10:54:02;;;;;;;21.67;14.87;;;;;;;;;;5113254;28;20019;-67
2022/05/17 10:56:33;;;;;;;20.03;13.27;;;;;;;;;;5108876;28;20689;-66
2022/05/17 10:59:03;;;;;;;22.10;13.53;;;;;;;;;;5089720;28;20269;-65
2022/05/17 11:01:38;;;;;;;20.77;13.10;;;;;;;;;;5091671;28;20268;-66
2022/05/17 11:04:04;;;;;;;;;;;;;;;;;;5107980;28;20260;-68
2022/05/17 11:06:37;;;;;;;29.00;14.83;;;;;;;;;;5106694;28;19912;-65
2022/05/17 11:09:12;;;;;;;26.77;14.40;;;;;;;;;;5092945;28;20260;-65
2022/05/17 11:12:06;;;;;;;28.13;14.90;;;;;;;;;;5094134;28;20619;-65
2022/05/17 11:14:45;;;;;;;23.43;13.33;;;;;;;;;;5094575;28;20038;-64
2022/05/17 11:17:12;;;;;;;22.43;12.70;;;;;;;;;;5109289;28;20337;-65
2022/05/17 11:19:44;;;;;;;21.77;13.73;;;;;;;;;;5107845;28;20264;-65
2022/05/17 11:22:11;;;;;;;27.03;15.70;;;;;;;;;;5091209;28;20363;-65
2022/05/17 11:24:53;;;;;;;23.63;13.20;;;;;;;;;;5087283;28;20268;-65
2022/05/17 11:27:38;;;;;;;21.63;13.40;;;;;;;;;;5087331;28;20269;-64
2022/05/17 11:30:23;;;;;;;21.10;12.93;;;;;;;;;;5092643;28;20264;-65
2022/05/17 11:33:08;;;;;;;23.45;13.50;;;;;;;;;;5092834;28;20796;-65
2022/05/17 11:35:35;;;;;;;22.30;13.20;;;;;;;;;;5107448;28;20137;-64
2022/05/17 11:38:05;;;;;;;19.40;12.27;;;;;;;;;;5112283;28;20069;-64
2022/05/17 11:40:44;;;;;;;23.63;13.07;;;;;;;;;;5110577;28;20260;-65
2022/05/17 11:45:56;;;;;;;23.83;14.48;;;;;;;;;;5087479;28;20267;-64
2022/05/17 11:48:46;;;;;;;21.87;14.00;;;;;;;;;;5087188;28;20028;-64
2022/05/17 11:51:13;;;;;;;23.67;14.47;;;;;;;;;;5077198;28;20623;-65
2022/05/17 11:53:42;;;;;;;20.57;13.77;;;;;;;;;;5092246;28;20264;-64
2022/05/17 11:56:21;;;;;;;24.00;14.33;;;;;;;;;;5089335;28;20647;-64
2022/05/17 11:58:52;;;;;;;21.87;13.10;;;;;;;;;;5111838;28;20270;-64
2022/05/17 12:01:31;;;;;;;25.80;13.67;;;;;;;;;;5112107;28;20647;-66
2022/05/17 12:04:28;;;;;;;24.10;13.17;;;;;;;;;;5088824;28;20257;-64
2022/05/17 12:06:55;;;;;;;25.30;14.50;;;;;;;;;;5092200;28;20311;-64
2022/05/17 12:09:21;;;;;;;25.30;14.60;;;;;;;;;;5111311;28;20603;-64
2022/05/17 12:11:48;;;;;;;30.77;14.87;;;;;;;;;;5111172;28;20814;-64
2022/05/17 12:14:15;;;;;;;25.10;13.60;;;;;;;;;;5116010;28;20256;-64
2022/05/17 12:16:49;;;;;;;21.03;13.07;;;;;;;;;;5105932;28;20363;-64
2022/05/17 12:19:22;;;;;;;26.67;13.95;;;;;;;;;;5095983;28;20268;-64
2022/05/17 12:21:49;;;;;;;21.37;11.70;;;;;;;;;;5096219;28;20035;-64
2022/05/17 12:24:15;;;;;;;22.33;12.27;;;;;;;;;;5095956;28;20280;-65
2022/05/17 12:26:49;;;;;;;28.93;13.37;;;;;;;;;;5094253;28;20338;-64
2022/05/17 12:32:07;;;;;;;21.37;13.50;;;;;;;;;;5091003;28;20329;-64
2022/05/17 12:34:34;;;;;;;20.33;13.57;;;;;;;;;;5091011;28;20371;-64
2022/05/17 12:37:10;;;;;;;19.07;12.80;;;;;;;;;;5095942;28;20281;-64
2022/05/17 12:45:11;;;;;;;31.10;14.00;;;;;;;;;;5095683;28;20039;-65
2022/05/17 12:47:42;;;;;;;23.10;12.93;;;;;;;;;;5093372;28;20066;-64
2022/05/17 12:50:13;;;;;;;23.13;14.97;;;;;;;;;;5090250;28;20257;-65
2022/05/17 12:52:41;;;;;;;22.80;12.90;;;;;;;;;;5090448;28;20273;-65
2022/05/17 12:55:21;;;;;;;26.50;14.23;;;;;;;;;;5106693;28;20260;-65
2022/05/17 12:57:48;;;;;;;24.60;13.83;;;;;;;;;;5096437;28;20268;-65
2022/05/17 13:00:17;;;;;;;24.73;13.77;;;;;;;;;;5115182;28;20288;-65
2022/05/17 13:02:48;;;;;;;23.47;14.93;;;;;;;;;;5110580;28;20318;-65
2022/05/17 13:05:25;;;;;;;22.60;13.53;;;;;;;;;;5095612;28;20314;-64
2022/05/17 13:08:03;;;;;;;20.97;12.83;;;;;;;;;;5098542;28;20712;-64
2022/05/17 13:10:30;;;;;;;26.33;12.67;;;;;;;;;;5111532;28;20714;-65
2022/05/17 13:12:57;;;;;;;26.17;14.23;;;;;;;;;;5109786;28;20280;-65
2022/05/17 13:15:24;;;;;;;25.73;14.80;;;;;;;;;;5094393;28;20296;-64
2022/05/17 13:17:54;;;;;;;27.13;13.93;;;;;;;;;;5108094;28;20359;-64
2022/05/17 13:20:25;;;;;;;19.07;12.90;;;;;;;;;;5099484;28;20261;-65
2022/05/17 13:22:54;;;;;;;24.47;14.17;;;;;;;;;;5095077;28;20244;-64
2022/05/17 13:25:23;;;;;;;22.30;13.13;;;;;;;;;;5094916;28;20261;-65
2022/05/17 13:27:51;;;;;;;21.27;12.73;;;;;;;;;;5105267;28;20738;-65
2022/05/17 13:30:32;;;;;;;21.47;11.70;;;;;;;;;;5103818;28;20132;-65
2022/05/17 13:33:01;;;;;;;18.40;11.73;;;;;;;;;;5110567;28;20028;-65
2022/05/17 13:35:31;;;;;;;22.27;11.73;;;;;;;;;;5109284;28;20092;-65
2022/05/17 13:38:06;;;;;;;23.93;13.73;;;;;;;;;;5099378;28;20028;-65
2022/05/17 13:40:53;;;;;;;23.65;12.95;;;;;;;;;;5089022;28;20024;-65
2022/05/17 13:43:31;;;;;;;21.50;13.53;;;;;;;;;;5093675;28;20023;-65
2022/05/17 13:46:21;;;;;;;21.67;13.70;;;;;;;;;;5094234;28;20405;-65
2022/05/17 13:48:52;;;;;;;21.03;12.57;;;;;;;;;;5094350;28;20028;-65
2022/05/17 13:51:28;;;;;;;24.17;14.30;;;;;;;;;;5094163;28;20024;-65
2022/05/17 13:54:07;;;;;;;24.07;14.13;;;;;;;;;;5092136;28;20063;-66
2022/05/17 13:56:36;;;;;;;22.03;15.37;;;;;;;;;;5098130;28;20036;-65
2022/05/17 13:59:04;;;;;;;19.73;15.23;;;;;;;;;;5109004;28;20427;-65
2022/05/17 14:01:35;;;;;;;29.37;15.77;;;;;;;;;;5101944;28;20026;-67
2022/05/17 14:04:05;;;;;;;37.17;16.77;;;;;;;;;;5091340;28;20487;-65
2022/05/17 14:06:43;;;;;;;30.03;15.60;;;;;;;;;;5093965;28;20116;-66
2022/05/17 14:11:58;;;;;;;29.80;16.17;;;;;;;;;;5105700;28;20490;-65
2022/05/17 14:14:25;;;;;;;24.60;14.63;;;;;;;;;;5093761;28;20024;-65
2022/05/17 14:16:56;;;;;;;23.47;13.93;;;;;;;;;;5105935;28;20103;-65
2022/05/17 14:19:24;;;;;;;25.40;15.87;;;;;;;;;;5109026;28;20023;-66
2022/05/17 14:21:53;;;;;;;36.90;16.77;;;;;;;;;;5108778;28;20050;-66
2022/05/17 14:24:20;;;;;;;32.13;16.07;;;;;;;;;;5108890;28;20031;-67
2022/05/17 14:26:48;;;;;;;31.17;17.70;;;;;;;;;;5104541;28;20028;-67
2022/05/17 14:29:15;;;;;;;28.07;15.80;;;;;;;;;;5092589;28;20443;-66
2022/05/17 14:31:43;;;;;;;23.57;14.50;;;;;;;;;;5109544;28;20032;-67
2022/05/17 14:34:18;;;;;;;29.23;14.43;;;;;;;;;;5104919;28;20080;-66
2022/05/17 14:36:45;;;;;;;24.00;13.38;;;;;;;;;;5113598;28;20474;-66
2022/05/17 14:39:13;;;;;;;17.10;12.13;;;;;;;;;;5110231;28;20031;-67
2022/05/17 14:41:40;;;;;;;20.93;13.67;;;;;;;;;;5108289;28;20116;-67
2022/05/17 14:44:08;;;;;;;18.33;13.50;;;;;;;;;;5108284;28;20023;-67
2022/05/17 14:46:35;;;;;;;25.70;14.13;;;;;;;;;;5100589;28;20524;-67
2022/05/17 14:49:02;;;;;;;29.17;14.83;;;;;;;;;;5110769;28;20030;-67
2022/05/17 14:51:30;;;;;;;23.00;14.70;;;;;;;;;;5113210;28;20031;-67
2022/05/17 14:53:56;;;;;;;27.03;13.40;;;;;;;;;;5113765;28;20516;-67
2022/05/17 14:56:24;;;;;;;26.63;13.90;;;;;;;;;;5101119;28;20036;-66